sensor_id;sensor_type;location;lat;lon;timestamp;pressure;altitude;pressure_sealevel;temperature
48894;BMP280;34710;35.798;139.446;2023-04-06T00:00:37;100791.15;;;17.27
48894;BMP280;34710;35.798;139.446;2023-04-06T00:03:02;100789.77;;;18.14
48894;BMP280;34710;35.798;139.446;2023-04-06T00:05:27;100791.48;;;18.28
48894;BMP280;34710;35.798;139.446;2023-04-06T00:07:53;100796.49;;;17.98
48894;BMP280;34710;35.798;139.446;2023-04-06T00:10:20;100785.17;;;17.12
48894;BMP280;34710;35.798;139.446;2023-04-06T00:12:45;100786.23;;;17.71
48894;BMP280;34710;35.798;139.446;2023-04-06T00:15:11;100788.12;;;17.86
48894;BMP280;34710;35.798;139.446;2023-04-06T00:17:35;100790.56;;;18.33
48894;BMP280;34710;35.798;139.446;2023-04-06T00:20:01;100789.11;;;18.54
48894;BMP280;34710;35.798;139.446;2023-04-06T00:22:26;100786.51;;;18.33
48894;BMP280;34710;35.798;139.446;2023-04-06T00:24:52;100786.48;;;18.23
48894;BMP280;34710;35.798;139.446;2023-04-06T00:27:17;100786.77;;;18.64
48894;BMP280;34710;35.798;139.446;2023-04-06T00:29:43;100783.23;;;18.78
48894;BMP280;34710;35.798;139.446;2023-04-06T00:32:08;100780.06;;;19.57
48894;BMP280;34710;35.798;139.446;2023-04-06T00:34:34;100777.85;;;19.18
48894;BMP280;34710;35.798;139.446;2023-04-06T00:36:58;100773.21;;;18.55
48894;BMP280;34710;35.798;139.446;2023-04-06T00:39:23;100771.69;;;18.91
48894;BMP280;34710;35.798;139.446;2023-04-06T00:41:51;100762.69;;;19.39
48894;BMP280;34710;35.798;139.446;2023-04-06T00:44:14;100757.98;;;18.96
48894;BMP280;34710;35.798;139.446;2023-04-06T00:46:40;100754.83;;;19.52
48894;BMP280;34710;35.798;139.446;2023-04-06T00:49:05;100752.58;;;19.76
48894;BMP280;34710;35.798;139.446;2023-04-06T00:51:31;100748.28;;;19.09
48894;BMP280;34710;35.798;139.446;2023-04-06T00:53:55;100746.71;;;19.07
48894;BMP280;34710;35.798;139.446;2023-04-06T00:56:21;100739.39;;;19.32
48894;BMP280;34710;35.798;139.446;2023-04-06T00:58:46;100736.94;;;18.93
48894;BMP280;34710;35.798;139.446;2023-04-06T01:01:12;100731.61;;;20.55
48894;BMP280;34710;35.798;139.446;2023-04-06T01:03:37;100734.93;;;20.97
48894;BMP280;34710;35.798;139.446;2023-04-06T01:06:02;100737.03;;;19.59
48894;BMP280;34710;35.798;139.446;2023-04-06T01:08:27;100739.47;;;19.16
48894;BMP280;34710;35.798;139.446;2023-04-06T01:10:52;100733.98;;;19.11
48894;BMP280;34710;35.798;139.446;2023-04-06T01:13:17;100735.70;;;20.36
48894;BMP280;34710;35.798;139.446;2023-04-06T01:15:43;100729.66;;;20.89
48894;BMP280;34710;35.798;139.446;2023-04-06T01:18:08;100726.93;;;20.42
48894;BMP280;34710;35.798;139.446;2023-04-06T01:20:33;100720.22;;;20.99
48894;BMP280;34710;35.798;139.446;2023-04-06T01:22:58;100720.75;;;21.02
48894;BMP280;34710;35.798;139.446;2023-04-06T01:25:24;100729.45;;;20.39
48894;BMP280;34710;35.798;139.446;2023-04-06T01:27:49;100728.18;;;20.96
48894;BMP280;34710;35.798;139.446;2023-04-06T01:30:15;100723.69;;;21.36
48894;BMP280;34710;35.798;139.446;2023-04-06T01:32:39;100723.88;;;22.42
48894;BMP280;34710;35.798;139.446;2023-04-06T01:35:05;100725.79;;;22.02
48894;BMP280;34710;35.798;139.446;2023-04-06T01:37:29;100724.98;;;22.12
48894;BMP280;34710;35.798;139.446;2023-04-06T01:39:55;100734.87;;;20.02
48894;BMP280;34710;35.798;139.446;2023-04-06T01:42:20;100725.61;;;20.19
48894;BMP280;34710;35.798;139.446;2023-04-06T01:44:45;100717.50;;;20.92
48894;BMP280;34710;35.798;139.446;2023-04-06T01:47:11;100712.49;;;20.58
48894;BMP280;34710;35.798;139.446;2023-04-06T01:49:36;100706.26;;;20.23
48894;BMP280;34710;35.798;139.446;2023-04-06T01:52:01;100702.45;;;19.73
48894;BMP280;34710;35.798;139.446;2023-04-06T01:54:26;100699.68;;;19.55
48894;BMP280;34710;35.798;139.446;2023-04-06T01:56:52;100686.81;;;20.76
48894;BMP280;34710;35.798;139.446;2023-04-06T01:59:18;100682.71;;;20.76
48894;BMP280;34710;35.798;139.446;2023-04-06T02:01:43;100679.81;;;20.20
48894;BMP280;34710;35.798;139.446;2023-04-06T02:04:08;100684.93;;;19.05
48894;BMP280;34710;35.798;139.446;2023-04-06T02:06:34;100676.19;;;20.53
48894;BMP280;34710;35.798;139.446;2023-04-06T02:08:59;100672.25;;;20.34
48894;BMP280;34710;35.798;139.446;2023-04-06T02:11:24;100673.98;;;20.00
48894;BMP280;34710;35.798;139.446;2023-04-06T02:13:49;100670.33;;;20.15
48894;BMP280;34710;35.798;139.446;2023-04-06T02:16:16;100668.97;;;18.87
48894;BMP280;34710;35.798;139.446;2023-04-06T02:18:41;100663.08;;;19.59
48894;BMP280;34710;35.798;139.446;2023-04-06T02:21:06;100650.00;;;19.81
48894;BMP280;34710;35.798;139.446;2023-04-06T02:23:31;100644.03;;;20.11
48894;BMP280;34710;35.798;139.446;2023-04-06T02:25:57;100638.07;;;20.08
48894;BMP280;34710;35.798;139.446;2023-04-06T02:28:23;100638.93;;;20.36
48894;BMP280;34710;35.798;139.446;2023-04-06T02:30:47;100639.23;;;19.35
48894;BMP280;34710;35.798;139.446;2023-04-06T02:33:12;100639.08;;;19.25
48894;BMP280;34710;35.798;139.446;2023-04-06T02:35:37;100630.41;;;19.79
48894;BMP280;34710;35.798;139.446;2023-04-06T02:38:02;100629.96;;;19.28
48894;BMP280;34710;35.798;139.446;2023-04-06T02:40:28;100622.10;;;20.42
48894;BMP280;34710;35.798;139.446;2023-04-06T02:42:53;100622.21;;;20.74
48894;BMP280;34710;35.798;139.446;2023-04-06T02:45:18;100617.93;;;20.80
48894;BMP280;34710;35.798;139.446;2023-04-06T02:47:43;100621.79;;;20.25
48894;BMP280;34710;35.798;139.446;2023-04-06T02:50:09;100620.08;;;20.44
48894;BMP280;34710;35.798;139.446;2023-04-06T02:52:34;100616.95;;;21.28
48894;BMP280;34710;35.798;139.446;2023-04-06T02:54:59;100614.29;;;21.26
48894;BMP280;34710;35.798;139.446;2023-04-06T02:57:24;100611.81;;;21.59
48894;BMP280;34710;35.798;139.446;2023-04-06T02:59:49;100606.85;;;21.34
48894;BMP280;34710;35.798;139.446;2023-04-06T03:02:15;100606.19;;;21.82
48894;BMP280;34710;35.798;139.446;2023-04-06T03:04:39;100598.18;;;20.66
48894;BMP280;34710;35.798;139.446;2023-04-06T03:07:05;100609.83;;;19.81
48894;BMP280;34710;35.798;139.446;2023-04-06T03:09:30;100600.84;;;19.85
48894;BMP280;34710;35.798;139.446;2023-04-06T03:11:55;100587.98;;;20.57
48894;BMP280;34710;35.798;139.446;2023-04-06T03:14:20;100593.60;;;20.65
48894;BMP280;34710;35.798;139.446;2023-04-06T03:16:45;100590.03;;;21.14
48894;BMP280;34710;35.798;139.446;2023-04-06T03:19:10;100585.84;;;20.03
48894;BMP280;34710;35.798;139.446;2023-04-06T03:21:36;100579.40;;;20.53
48894;BMP280;34710;35.798;139.446;2023-04-06T03:24:00;100576.51;;;21.38
48894;BMP280;34710;35.798;139.446;2023-04-06T03:26:26;100570.41;;;20.51
48894;BMP280;34710;35.798;139.446;2023-04-06T03:28:51;100573.67;;;20.88
48894;BMP280;34710;35.798;139.446;2023-04-06T03:31:17;100570.15;;;21.47
48894;BMP280;34710;35.798;139.446;2023-04-06T03:33:41;100571.41;;;22.19
48894;BMP280;34710;35.798;139.446;2023-04-06T03:36:07;100557.32;;;21.69
48894;BMP280;34710;35.798;139.446;2023-04-06T03:38:32;100549.57;;;21.24
48894;BMP280;34710;35.798;139.446;2023-04-06T03:40:57;100546.49;;;20.98
48894;BMP280;34710;35.798;139.446;2023-04-06T03:43:22;100552.28;;;20.33
48894;BMP280;34710;35.798;139.446;2023-04-06T03:45:47;100553.64;;;19.66
48894;BMP280;34710;35.798;139.446;2023-04-06T03:48:12;100546.85;;;19.41
48894;BMP280;34710;35.798;139.446;2023-04-06T03:50:37;100547.16;;;20.09
48894;BMP280;34710;35.798;139.446;2023-04-06T03:53:02;100546.33;;;20.05
48894;BMP280;34710;35.798;139.446;2023-04-06T03:55:27;100542.22;;;19.56
48894;BMP280;34710;35.798;139.446;2023-04-06T03:57:53;100539.62;;;20.40
48894;BMP280;34710;35.798;139.446;2023-04-06T04:00:18;100539.19;;;19.68
48894;BMP280;34710;35.798;139.446;2023-04-06T04:02:44;100540.14;;;19.92
48894;BMP280;34710;35.798;139.446;2023-04-06T04:05:10;100539.39;;;20.61
48894;BMP280;34710;35.798;139.446;2023-04-06T04:07:34;100543.64;;;20.03
48894;BMP280;34710;35.798;139.446;2023-04-06T04:09:59;100542.07;;;19.84
48894;BMP280;34710;35.798;139.446;2023-04-06T04:12:24;100539.32;;;19.55
48894;BMP280;34710;35.798;139.446;2023-04-06T04:14:50;100530.90;;;19.25
48894;BMP280;34710;35.798;139.446;2023-04-06T04:17:15;100522.58;;;19.95
48894;BMP280;34710;35.798;139.446;2023-04-06T04:19:41;100507.90;;;19.43
48894;BMP280;34710;35.798;139.446;2023-04-06T04:22:06;100504.99;;;19.59
48894;BMP280;34710;35.798;139.446;2023-04-06T04:24:30;100504.99;;;20.51
48894;BMP280;34710;35.798;139.446;2023-04-06T04:26:56;100504.06;;;20.93
48894;BMP280;34710;35.798;139.446;2023-04-06T04:29:21;100498.01;;;20.79
48894;BMP280;34710;35.798;139.446;2023-04-06T04:31:47;100495.55;;;21.16
48894;BMP280;34710;35.798;139.446;2023-04-06T04:34:11;100488.14;;;21.00
48894;BMP280;34710;35.798;139.446;2023-04-06T04:36:37;100476.63;;;22.70
48894;BMP280;34710;35.798;139.446;2023-04-06T04:39:02;100475.41;;;21.82
48894;BMP280;34710;35.798;139.446;2023-04-06T04:41:27;100477.21;;;21.12
48894;BMP280;34710;35.798;139.446;2023-04-06T04:43:51;100470.84;;;19.96
48894;BMP280;34710;35.798;139.446;2023-04-06T04:46:17;100462.18;;;20.21
48894;BMP280;34710;35.798;139.446;2023-04-06T04:48:42;100458.30;;;20.27
48894;BMP280;34710;35.798;139.446;2023-04-06T04:51:08;100452.42;;;19.87
48894;BMP280;34710;35.798;139.446;2023-04-06T04:53:32;100453.21;;;20.59
48894;BMP280;34710;35.798;139.446;2023-04-06T04:55:57;100447.92;;;20.46
48894;BMP280;34710;35.798;139.446;2023-04-06T04:58:22;100449.79;;;20.96
48894;BMP280;34710;35.798;139.446;2023-04-06T05:00:47;100438.77;;;21.16
48894;BMP280;34710;35.798;139.446;2023-04-06T05:03:19;100440.42;;;20.91
48894;BMP280;34710;35.798;139.446;2023-04-06T05:05:38;100439.04;;;20.92
48894;BMP280;34710;35.798;139.446;2023-04-06T05:08:03;100448.63;;;20.33
48894;BMP280;34710;35.798;139.446;2023-04-06T05:10:28;100437.07;;;20.39
48894;BMP280;34710;35.798;139.446;2023-04-06T05:12:53;100438.41;;;20.24
48894;BMP280;34710;35.798;139.446;2023-04-06T05:15:19;100431.59;;;19.98
48894;BMP280;34710;35.798;139.446;2023-04-06T05:17:43;100422.46;;;20.24
48894;BMP280;34710;35.798;139.446;2023-04-06T05:20:09;100424.58;;;20.72
48894;BMP280;34710;35.798;139.446;2023-04-06T05:22:34;100420.89;;;20.43
48894;BMP280;34710;35.798;139.446;2023-04-06T05:24:59;100422.23;;;20.41
48894;BMP280;34710;35.798;139.446;2023-04-06T05:27:24;100412.57;;;20.05
48894;BMP280;34710;35.798;139.446;2023-04-06T05:29:50;100421.47;;;20.88
48894;BMP280;34710;35.798;139.446;2023-04-06T05:32:14;100415.30;;;20.71
48894;BMP280;34710;35.798;139.446;2023-04-06T05:34:39;100409.96;;;20.32
48894;BMP280;34710;35.798;139.446;2023-04-06T05:37:05;100412.35;;;20.63
48894;BMP280;34710;35.798;139.446;2023-04-06T05:39:29;100405.50;;;19.95
48894;BMP280;34710;35.798;139.446;2023-04-06T05:41:55;100401.14;;;19.88
48894;BMP280;34710;35.798;139.446;2023-04-06T05:44:19;100394.74;;;19.35
48894;BMP280;34710;35.798;139.446;2023-04-06T05:46:45;100392.35;;;19.42
48894;BMP280;34710;35.798;139.446;2023-04-06T05:49:10;100389.91;;;19.94
48894;BMP280;34710;35.798;139.446;2023-04-06T05:51:36;100388.13;;;19.93
48894;BMP280;34710;35.798;139.446;2023-04-06T05:54:01;100382.06;;;19.92
48894;BMP280;34710;35.798;139.446;2023-04-06T05:56:26;100372.81;;;19.47
48894;BMP280;34710;35.798;139.446;2023-04-06T05:58:50;100367.60;;;19.33
48894;BMP280;34710;35.798;139.446;2023-04-06T06:01:16;100363.94;;;18.82
48894;BMP280;34710;35.798;139.446;2023-04-06T06:03:40;100363.11;;;19.45
48894;BMP280;34710;35.798;139.446;2023-04-06T06:06:06;100354.60;;;19.42
48894;BMP280;34710;35.798;139.446;2023-04-06T06:08:31;100360.67;;;19.12
48894;BMP280;34710;35.798;139.446;2023-04-06T06:10:57;100352.41;;;19.14
48894;BMP280;34710;35.798;139.446;2023-04-06T06:13:22;100361.58;;;20.57
48894;BMP280;34710;35.798;139.446;2023-04-06T06:15:47;100361.46;;;20.47
48894;BMP280;34710;35.798;139.446;2023-04-06T06:18:12;100367.83;;;21.02
48894;BMP280;34710;35.798;139.446;2023-04-06T06:20:37;100364.63;;;20.82
48894;BMP280;34710;35.798;139.446;2023-04-06T06:23:02;100369.97;;;20.43
48894;BMP280;34710;35.798;139.446;2023-04-06T06:25:28;100373.52;;;20.31
48894;BMP280;34710;35.798;139.446;2023-04-06T06:27:52;100377.43;;;20.60
48894;BMP280;34710;35.798;139.446;2023-04-06T06:30:18;100376.16;;;19.63
48894;BMP280;34710;35.798;139.446;2023-04-06T06:32:43;100369.83;;;19.53
48894;BMP280;34710;35.798;139.446;2023-04-06T06:35:09;100364.31;;;19.74
48894;BMP280;34710;35.798;139.446;2023-04-06T06:37:33;100362.44;;;19.35
48894;BMP280;34710;35.798;139.446;2023-04-06T06:39:58;100359.81;;;19.27
48894;BMP280;34710;35.798;139.446;2023-04-06T06:42:23;100356.27;;;19.26
48894;BMP280;34710;35.798;139.446;2023-04-06T06:44:48;100355.55;;;18.92
48894;BMP280;34710;35.798;139.446;2023-04-06T06:47:14;100357.93;;;18.68
48894;BMP280;34710;35.798;139.446;2023-04-06T06:49:38;100365.55;;;18.33
48894;BMP280;34710;35.798;139.446;2023-04-06T06:52:04;100365.77;;;18.61
48894;BMP280;34710;35.798;139.446;2023-04-06T06:54:29;100366.50;;;18.48
48894;BMP280;34710;35.798;139.446;2023-04-06T06:56:54;100358.47;;;18.45
48894;BMP280;34710;35.798;139.446;2023-04-06T06:59:20;100355.75;;;18.87
48894;BMP280;34710;35.798;139.446;2023-04-06T07:01:44;100355.52;;;19.63
48894;BMP280;34710;35.798;139.446;2023-04-06T07:04:10;100359.28;;;19.39
48894;BMP280;34710;35.798;139.446;2023-04-06T07:06:35;100354.06;;;18.90
48894;BMP280;34710;35.798;139.446;2023-04-06T07:09:00;100350.63;;;19.21
48894;BMP280;34710;35.798;139.446;2023-04-06T07:11:25;100354.77;;;19.09
48894;BMP280;34710;35.798;139.446;2023-04-06T07:13:50;100361.76;;;19.29
48894;BMP280;34710;35.798;139.446;2023-04-06T07:16:15;100362.26;;;19.40
48894;BMP280;34710;35.798;139.446;2023-04-06T07:18:40;100362.86;;;19.71
48894;BMP280;34710;35.798;139.446;2023-04-06T07:21:05;100364.19;;;19.67
48894;BMP280;34710;35.798;139.446;2023-04-06T07:23:30;100365.37;;;19.77
48894;BMP280;34710;35.798;139.446;2023-04-06T07:25:56;100369.39;;;19.66
48894;BMP280;34710;35.798;139.446;2023-04-06T07:28:21;100364.97;;;19.31
48894;BMP280;34710;35.798;139.446;2023-04-06T07:30:47;100370.82;;;19.17
48894;BMP280;34710;35.798;139.446;2023-04-06T07:33:12;100357.25;;;19.51
48894;BMP280;34710;35.798;139.446;2023-04-06T07:35:36;100364.42;;;19.55
48894;BMP280;34710;35.798;139.446;2023-04-06T07:38:02;100369.32;;;19.46
48894;BMP280;34710;35.798;139.446;2023-04-06T07:40:27;100366.88;;;19.85
48894;BMP280;34710;35.798;139.446;2023-04-06T07:42:52;100367.53;;;19.89
48894;BMP280;34710;35.798;139.446;2023-04-06T07:45:18;100383.64;;;19.70
48894;BMP280;34710;35.798;139.446;2023-04-06T07:47:43;100375.05;;;19.90
48894;BMP280;34710;35.798;139.446;2023-04-06T07:50:10;100375.33;;;19.66
48894;BMP280;34710;35.798;139.446;2023-04-06T07:52:33;100371.01;;;19.43
48894;BMP280;34710;35.798;139.446;2023-04-06T07:54:59;100378.90;;;19.17
48894;BMP280;34710;35.798;139.446;2023-04-06T07:57:24;100377.25;;;19.05
48894;BMP280;34710;35.798;139.446;2023-04-06T07:59:49;100382.46;;;18.46
48894;BMP280;34710;35.798;139.446;2023-04-06T08:02:14;100379.26;;;18.45
48894;BMP280;34710;35.798;139.446;2023-04-06T08:04:39;100378.90;;;18.82
48894;BMP280;34710;35.798;139.446;2023-04-06T08:07:04;100380.31;;;18.76
48894;BMP280;34710;35.798;139.446;2023-04-06T08:09:30;100384.81;;;18.79
48894;BMP280;34710;35.798;139.446;2023-04-06T08:11:55;100395.06;;;19.07
48894;BMP280;34710;35.798;139.446;2023-04-06T08:14:20;100392.34;;;19.28
48894;BMP280;34710;35.798;139.446;2023-04-06T08:16:45;100395.43;;;18.22
48894;BMP280;34710;35.798;139.446;2023-04-06T08:19:10;100400.11;;;18.26
48894;BMP280;34710;35.798;139.446;2023-04-06T08:21:35;100408.53;;;18.22
48894;BMP280;34710;35.798;139.446;2023-04-06T08:24:01;100408.54;;;19.10
48894;BMP280;34710;35.798;139.446;2023-04-06T08:26:25;100411.06;;;18.77
48894;BMP280;34710;35.798;139.446;2023-04-06T08:28:51;100420.27;;;18.63
48894;BMP280;34710;35.798;139.446;2023-04-06T08:31:15;100421.31;;;18.30
48894;BMP280;34710;35.798;139.446;2023-04-06T08:33:41;100423.20;;;18.64
48894;BMP280;34710;35.798;139.446;2023-04-06T08:36:09;100430.18;;;18.06
48894;BMP280;34710;35.798;139.446;2023-04-06T08:38:32;100427.38;;;17.61
48894;BMP280;34710;35.798;139.446;2023-04-06T08:40:57;100431.76;;;17.60
48894;BMP280;34710;35.798;139.446;2023-04-06T08:43:24;100426.94;;;17.64
48894;BMP280;34710;35.798;139.446;2023-04-06T08:45:47;100433.08;;;17.64
48894;BMP280;34710;35.798;139.446;2023-04-06T08:48:12;100433.12;;;17.66
48894;BMP280;34710;35.798;139.446;2023-04-06T08:50:39;100443.09;;;17.31
48894;BMP280;34710;35.798;139.446;2023-04-06T08:53:02;100442.72;;;17.11
48894;BMP280;34710;35.798;139.446;2023-04-06T08:55:28;100445.11;;;17.22
48894;BMP280;34710;35.798;139.446;2023-04-06T08:57:53;100446.50;;;17.38
48894;BMP280;34710;35.798;139.446;2023-04-06T09:00:18;100443.15;;;17.29
48894;BMP280;34710;35.798;139.446;2023-04-06T09:02:45;100448.47;;;17.32
48894;BMP280;34710;35.798;139.446;2023-04-06T09:05:10;100444.45;;;16.57
48894;BMP280;34710;35.798;139.446;2023-04-06T09:07:33;100458.94;;;17.13
48894;BMP280;34710;35.798;139.446;2023-04-06T09:09:58;100452.43;;;16.92
48894;BMP280;34710;35.798;139.446;2023-04-06T09:12:25;100463.97;;;16.31
48894;BMP280;34710;35.798;139.446;2023-04-06T09:14:49;100463.04;;;16.35
48894;BMP280;34710;35.798;139.446;2023-04-06T09:17:21;100451.08;;;16.25
48894;BMP280;34710;35.798;139.446;2023-04-06T09:19:45;100461.27;;;16.28
48894;BMP280;34710;35.798;139.446;2023-04-06T09:22:05;100464.25;;;16.26
48894;BMP280;34710;35.798;139.446;2023-04-06T09:26:54;100470.61;;;16.60
48894;BMP280;34710;35.798;139.446;2023-04-06T09:29:25;100475.78;;;16.39
48894;BMP280;34710;35.798;139.446;2023-04-06T09:31:44;100474.78;;;16.62
48894;BMP280;34710;35.798;139.446;2023-04-06T09:34:19;100478.04;;;16.20
48894;BMP280;34710;35.798;139.446;2023-04-06T09:36:36;100486.46;;;16.57
48894;BMP280;34710;35.798;139.446;2023-04-06T09:39:01;100479.56;;;16.10
48894;BMP280;34710;35.798;139.446;2023-04-06T09:41:27;100489.74;;;16.40
48894;BMP280;34710;35.798;139.446;2023-04-06T09:43:51;100493.11;;;16.60
48894;BMP280;34710;35.798;139.446;2023-04-06T09:46:16;100494.19;;;17.19
48894;BMP280;34710;35.798;139.446;2023-04-06T09:48:41;100496.54;;;17.03
48894;BMP280;34710;35.798;139.446;2023-04-06T09:51:06;100496.10;;;16.57
48894;BMP280;34710;35.798;139.446;2023-04-06T09:53:32;100504.18;;;16.93
48894;BMP280;34710;35.798;139.446;2023-04-06T09:56:00;100507.20;;;16.82
48894;BMP280;34710;35.798;139.446;2023-04-06T09:58:23;100509.43;;;16.93
48894;BMP280;34710;35.798;139.446;2023-04-06T10:00:51;100510.03;;;16.60
48894;BMP280;34710;35.798;139.446;2023-04-06T10:03:19;100516.32;;;16.63
48894;BMP280;34710;35.798;139.446;2023-04-06T10:05:42;100516.20;;;16.09
48894;BMP280;34710;35.798;139.446;2023-04-06T10:08:08;100516.59;;;16.35
48894;BMP280;34710;35.798;139.446;2023-04-06T10:10:28;100528.83;;;16.34
48894;BMP280;34710;35.798;139.446;2023-04-06T10:12:52;100534.08;;;15.92
48894;BMP280;34710;35.798;139.446;2023-04-06T10:15:18;100535.06;;;15.85
48894;BMP280;34710;35.798;139.446;2023-04-06T10:17:43;100541.75;;;16.33
48894;BMP280;34710;35.798;139.446;2023-04-06T10:20:12;100535.80;;;16.26
48894;BMP280;34710;35.798;139.446;2023-04-06T10:22:39;100542.32;;;16.09
48894;BMP280;34710;35.798;139.446;2023-04-06T10:24:59;100539.11;;;15.79
48894;BMP280;34710;35.798;139.446;2023-04-06T10:27:30;100534.09;;;15.90
48894;BMP280;34710;35.798;139.446;2023-04-06T10:29:51;100545.48;;;15.67
48894;BMP280;34710;35.798;139.446;2023-04-06T10:32:16;100542.61;;;15.37
48894;BMP280;34710;35.798;139.446;2023-04-06T10:34:41;100539.58;;;15.45
48894;BMP280;34710;35.798;139.446;2023-04-06T10:37:14;100554.14;;;15.20
48894;BMP280;34710;35.798;139.446;2023-04-06T10:39:32;100548.01;;;15.35
48894;BMP280;34710;35.798;139.446;2023-04-06T10:44:23;100551.44;;;15.34
48894;BMP280;34710;35.798;139.446;2023-04-06T10:46:55;100550.49;;;15.19
48894;BMP280;34710;35.798;139.446;2023-04-06T10:49:13;100551.08;;;15.54
48894;BMP280;34710;35.798;139.446;2023-04-06T10:51:39;100552.23;;;15.21
48894;BMP280;34710;35.798;139.446;2023-04-06T10:54:05;100558.35;;;15.50
48894;BMP280;34710;35.798;139.446;2023-04-06T10:56:31;100551.30;;;15.28
48894;BMP280;34710;35.798;139.446;2023-04-06T10:58:55;100552.60;;;15.83
48894;BMP280;34710;35.798;139.446;2023-04-06T11:01:21;100561.42;;;15.78
48894;BMP280;34710;35.798;139.446;2023-04-06T11:03:46;100563.11;;;15.85
48894;BMP280;34710;35.798;139.446;2023-04-06T11:06:10;100574.41;;;15.21
48894;BMP280;34710;35.798;139.446;2023-04-06T11:08:36;100582.51;;;15.44
48894;BMP280;34710;35.798;139.446;2023-04-06T11:11:07;100585.01;;;16.08
48894;BMP280;34710;35.798;139.446;2023-04-06T11:13:27;100588.61;;;15.45
48894;BMP280;34710;35.798;139.446;2023-04-06T11:15:52;100588.25;;;15.63
48894;BMP280;34710;35.798;139.446;2023-04-06T11:18:19;100591.85;;;15.38
48894;BMP280;34710;35.798;139.446;2023-04-06T11:20:48;100592.90;;;15.96
48894;BMP280;34710;35.798;139.446;2023-04-06T11:23:08;100588.92;;;15.55
48894;BMP280;34710;35.798;139.446;2023-04-06T11:25:34;100592.36;;;15.49
48894;BMP280;34710;35.798;139.446;2023-04-06T11:27:59;100601.07;;;15.74
48894;BMP280;34710;35.798;139.446;2023-04-06T11:30:24;100596.88;;;15.88
48894;BMP280;34710;35.798;139.446;2023-04-06T11:32:50;100603.31;;;15.86
48894;BMP280;34710;35.798;139.446;2023-04-06T11:35:20;100614.67;;;15.31
48894;BMP280;34710;35.798;139.446;2023-04-06T11:37:44;100604.29;;;15.53
48894;BMP280;34710;35.798;139.446;2023-04-06T11:40:09;100606.80;;;15.50
48894;BMP280;34710;35.798;139.446;2023-04-06T11:42:35;100604.48;;;15.86
48894;BMP280;34710;35.798;139.446;2023-04-06T11:44:58;100599.60;;;15.57
48894;BMP280;34710;35.798;139.446;2023-04-06T11:47:28;100604.67;;;16.02
48894;BMP280;34710;35.798;139.446;2023-04-06T11:49:49;100597.19;;;15.51
48894;BMP280;34710;35.798;139.446;2023-04-06T11:52:18;100601.10;;;16.08
48894;BMP280;34710;35.798;139.446;2023-04-06T11:54:40;100601.03;;;15.93
48894;BMP280;34710;35.798;139.446;2023-04-06T11:57:07;100607.83;;;15.91
48894;BMP280;34710;35.798;139.446;2023-04-06T11:59:31;100607.67;;;15.32
48894;BMP280;34710;35.798;139.446;2023-04-06T12:01:57;100594.23;;;15.62
48894;BMP280;34710;35.798;139.446;2023-04-06T12:04:22;100591.87;;;15.52
48894;BMP280;34710;35.798;139.446;2023-04-06T12:06:46;100580.49;;;15.50
48894;BMP280;34710;35.798;139.446;2023-04-06T12:09:12;100580.69;;;15.22
48894;BMP280;34710;35.798;139.446;2023-04-06T12:11:38;100583.11;;;15.63
48894;BMP280;34710;35.798;139.446;2023-04-06T12:14:03;100574.46;;;15.36
48894;BMP280;34710;35.798;139.446;2023-04-06T12:16:28;100570.55;;;15.57
48894;BMP280;34710;35.798;139.446;2023-04-06T12:18:53;100570.26;;;15.24
48894;BMP280;34710;35.798;139.446;2023-04-06T12:21:19;100570.05;;;15.51
48894;BMP280;34710;35.798;139.446;2023-04-06T12:23:43;100568.43;;;15.69
48894;BMP280;34710;35.798;139.446;2023-04-06T12:26:09;100565.73;;;15.29
48894;BMP280;34710;35.798;139.446;2023-04-06T12:28:35;100569.71;;;15.32
48894;BMP280;34710;35.798;139.446;2023-04-06T12:31:00;100568.37;;;14.92
48894;BMP280;34710;35.798;139.446;2023-04-06T12:33:26;100563.56;;;15.02
48894;BMP280;34710;35.798;139.446;2023-04-06T12:35:50;100566.60;;;15.27
48894;BMP280;34710;35.798;139.446;2023-04-06T12:38:16;100560.07;;;15.29
48894;BMP280;34710;35.798;139.446;2023-04-06T12:40:41;100561.41;;;15.19
48894;BMP280;34710;35.798;139.446;2023-04-06T12:43:07;100555.99;;;15.38
48894;BMP280;34710;35.798;139.446;2023-04-06T12:45:32;100555.18;;;15.51
48894;BMP280;34710;35.798;139.446;2023-04-06T12:47:58;100560.63;;;15.62
48894;BMP280;34710;35.798;139.446;2023-04-06T12:50:23;100562.10;;;15.47
48894;BMP280;34710;35.798;139.446;2023-04-06T12:52:49;100557.51;;;15.67
48894;BMP280;34710;35.798;139.446;2023-04-06T12:55:14;100556.79;;;15.41
48894;BMP280;34710;35.798;139.446;2023-04-06T12:57:39;100555.93;;;15.69
48894;BMP280;34710;35.798;139.446;2023-04-06T13:00:05;100552.40;;;15.33
48894;BMP280;34710;35.798;139.446;2023-04-06T13:02:31;100549.44;;;15.65
48894;BMP280;34710;35.798;139.446;2023-04-06T13:04:55;100552.54;;;15.98
48894;BMP280;34710;35.798;139.446;2023-04-06T13:07:20;100551.75;;;15.66
48894;BMP280;34710;35.798;139.446;2023-04-06T13:09:45;100553.57;;;16.12
48894;BMP280;34710;35.798;139.446;2023-04-06T13:12:11;100547.07;;;15.88
48894;BMP280;34710;35.798;139.446;2023-04-06T13:14:36;100550.48;;;16.11
48894;BMP280;34710;35.798;139.446;2023-04-06T13:17:01;100552.39;;;15.57
48894;BMP280;34710;35.798;139.446;2023-04-06T13:19:27;100551.39;;;15.60
48894;BMP280;34710;35.798;139.446;2023-04-06T13:21:52;100540.89;;;15.98
48894;BMP280;34710;35.798;139.446;2023-04-06T13:24:18;100538.67;;;15.78